sensor_id;sensor_type;location;lat;lon;timestamp;P1;durP1;ratioP1;P2;durP2;ratioP2
59607;SDS011;45426;44.726;10.390;2023-08-12T00:00:41;10.60;;;6.47;;
59607;SDS011;45426;44.726;10.390;2023-08-12T00:03:06;10.45;;;6.50;;
59607;SDS011;45426;44.726;10.390;2023-08-12T00:05:32;9.30;;;6.40;;
59607;SDS011;45426;44.726;10.390;2023-08-12T00:07:58;11.07;;;7.07;;
59607;SDS011;45426;44.726;10.390;2023-08-12T00:10:23;13.13;;;7.07;;
59607;SDS011;45426;44.726;10.390;2023-08-12T00:12:48;11.85;;;7.00;;
59607;SDS011;45426;44.726;10.390;2023-08-12T00:15:14;9.25;;;6.53;;
59607;SDS011;45426;44.726;10.390;2023-08-12T00:17:39;10.88;;;6.63;;
59607;SDS011;45426;44.726;10.390;2023-08-12T00:20:06;11.18;;;6.47;;
59607;SDS011;45426;44.726;10.390;2023-08-12T00:22:33;12.30;;;6.90;;
59607;SDS011;45426;44.726;10.390;2023-08-12T00:24:59;11.07;;;6.15;;
59607;SDS011;45426;44.726;10.390;2023-08-12T00:27:25;8.25;;;5.93;;
59607;SDS011;45426;44.726;10.390;2023-08-12T00:29:50;13.52;;;6.28;;
59607;SDS011;45426;44.726;10.390;2023-08-12T00:32:21;8.88;;;5.97;;
59607;SDS011;45426;44.726;10.390;2023-08-12T00:34:47;13.55;;;6.32;;
59607;SDS011;45426;44.726;10.390;2023-08-12T00:37:12;11.48;;;6.60;;
59607;SDS011;45426;44.726;10.390;2023-08-12T00:39:38;9.93;;;6.70;;
59607;SDS011;45426;44.726;10.390;2023-08-12T00:42:03;11.30;;;6.75;;
59607;SDS011;45426;44.726;10.390;2023-08-12T00:44:29;11.15;;;6.10;;
59607;SDS011;45426;44.726;10.390;2023-08-12T00:46:54;11.50;;;6.82;;
59607;SDS011;45426;44.726;10.390;2023-08-12T00:49:20;9.05;;;6.00;;
59607;SDS011;45426;44.726;10.390;2023-08-12T00:51:47;10.52;;;6.90;;
59607;SDS011;45426;44.726;10.390;2023-08-12T00:54:14;9.00;;;6.00;;
59607;SDS011;45426;44.726;10.390;2023-08-12T00:56:41;10.82;;;6.28;;
59607;SDS011;45426;44.726;10.390;2023-08-12T00:59:13;8.18;;;5.47;;
59607;SDS011;45426;44.726;10.390;2023-08-12T01:01:40;9.05;;;5.45;;
59607;SDS011;45426;44.726;10.390;2023-08-12T01:04:08;7.90;;;5.30;;
59607;SDS011;45426;44.726;10.390;2023-08-12T01:06:35;10.02;;;5.35;;
59607;SDS011;45426;44.726;10.390;2023-08-12T01:09:02;7.82;;;5.10;;
59607;SDS011;45426;44.726;10.390;2023-08-12T01:11:41;7.75;;;5.00;;
59607;SDS011;45426;44.726;10.390;2023-08-12T01:14:21;11.75;;;5.55;;
59607;SDS011;45426;44.726;10.390;2023-08-12T01:16:53;7.80;;;5.20;;
59607;SDS011;45426;44.726;10.390;2023-08-12T01:21:54;8.63;;;5.15;;
59607;SDS011;45426;44.726;10.390;2023-08-12T01:24:24;9.45;;;5.20;;
59607;SDS011;45426;44.726;10.390;2023-08-12T01:26:50;9.63;;;5.22;;
59607;SDS011;45426;44.726;10.390;2023-08-12T01:29:16;10.60;;;5.47;;
59607;SDS011;45426;44.726;10.390;2023-08-12T01:31:48;9.00;;;5.20;;
59607;SDS011;45426;44.726;10.390;2023-08-12T01:34:33;7.53;;;5.40;;
59607;SDS011;45426;44.726;10.390;2023-08-12T01:37:09;7.80;;;5.20;;
59607;SDS011;45426;44.726;10.390;2023-08-12T01:39:38;9.95;;;5.45;;
59607;SDS011;45426;44.726;10.390;2023-08-12T01:42:06;7.68;;;5.35;;
59607;SDS011;45426;44.726;10.390;2023-08-12T01:44:32;8.35;;;5.22;;
59607;SDS011;45426;44.726;10.390;2023-08-12T01:46:57;10.15;;;5.40;;
59607;SDS011;45426;44.726;10.390;2023-08-12T01:49:24;8.13;;;5.53;;
59607;SDS011;45426;44.726;10.390;2023-08-12T01:51:50;9.90;;;5.43;;
59607;SDS011;45426;44.726;10.390;2023-08-12T01:54:15;8.80;;;5.38;;
59607;SDS011;45426;44.726;10.390;2023-08-12T01:56:41;11.45;;;5.40;;
59607;SDS011;45426;44.726;10.390;2023-08-12T01:59:06;9.70;;;5.93;;
59607;SDS011;45426;44.726;10.390;2023-08-12T02:01:32;8.40;;;5.20;;
59607;SDS011;45426;44.726;10.390;2023-08-12T02:03:57;8.88;;;5.32;;
59607;SDS011;45426;44.726;10.390;2023-08-12T02:06:23;10.05;;;5.68;;
59607;SDS011;45426;44.726;10.390;2023-08-12T02:08:48;8.32;;;5.00;;
59607;SDS011;45426;44.726;10.390;2023-08-12T02:11:13;8.95;;;5.20;;
59607;SDS011;45426;44.726;10.390;2023-08-12T02:13:39;8.43;;;5.05;;
59607;SDS011;45426;44.726;10.390;2023-08-12T02:16:04;10.68;;;5.13;;
59607;SDS011;45426;44.726;10.390;2023-08-12T02:18:30;7.65;;;4.97;;
59607;SDS011;45426;44.726;10.390;2023-08-12T02:20:55;9.77;;;5.55;;
59607;SDS011;45426;44.726;10.390;2023-08-12T02:23:20;8.88;;;5.30;;
59607;SDS011;45426;44.726;10.390;2023-08-12T02:25:46;9.57;;;5.40;;
59607;SDS011;45426;44.726;10.390;2023-08-12T02:28:12;9.20;;;5.50;;
59607;SDS011;45426;44.726;10.390;2023-08-12T02:30:37;9.90;;;5.38;;
59607;SDS011;45426;44.726;10.390;2023-08-12T02:33:03;10.13;;;5.63;;
59607;SDS011;45426;44.726;10.390;2023-08-12T02:35:28;8.48;;;5.55;;
59607;SDS011;45426;44.726;10.390;2023-08-12T02:37:53;9.48;;;5.65;;
59607;SDS011;45426;44.726;10.390;2023-08-12T02:40:19;8.52;;;5.18;;
59607;SDS011;45426;44.726;10.390;2023-08-12T02:42:44;9.48;;;5.47;;
59607;SDS011;45426;44.726;10.390;2023-08-12T02:45:10;9.30;;;5.60;;
59607;SDS011;45426;44.726;10.390;2023-08-12T02:47:35;10.52;;;5.10;;
59607;SDS011;45426;44.726;10.390;2023-08-12T02:50:00;7.95;;;5.07;;
59607;SDS011;45426;44.726;10.390;2023-08-12T02:52:26;8.20;;;5.15;;
59607;SDS011;45426;44.726;10.390;2023-08-12T02:54:51;8.60;;;5.10;;
59607;SDS011;45426;44.726;10.390;2023-08-12T02:57:17;10.63;;;5.40;;
59607;SDS011;45426;44.726;10.390;2023-08-12T02:59:42;8.88;;;5.10;;
59607;SDS011;45426;44.726;10.390;2023-08-12T03:02:07;8.57;;;5.10;;
59607;SDS011;45426;44.726;10.390;2023-08-12T03:04:33;7.00;;;4.72;;
59607;SDS011;45426;44.726;10.390;2023-08-12T03:06:59;6.93;;;5.00;;
59607;SDS011;45426;44.726;10.390;2023-08-12T03:09:24;9.05;;;5.10;;
59607;SDS011;45426;44.726;10.390;2023-08-12T03:11:49;8.55;;;5.22;;
59607;SDS011;45426;44.726;10.390;2023-08-12T03:14:15;8.20;;;5.55;;
59607;SDS011;45426;44.726;10.390;2023-08-12T03:16:40;8.57;;;5.20;;
59607;SDS011;45426;44.726;10.390;2023-08-12T03:19:06;9.90;;;5.60;;
59607;SDS011;45426;44.726;10.390;2023-08-12T03:21:31;8.48;;;5.60;;
59607;SDS011;45426;44.726;10.390;2023-08-12T03:23:56;10.95;;;5.80;;
59607;SDS011;45426;44.726;10.390;2023-08-12T03:26:22;9.02;;;5.80;;
59607;SDS011;45426;44.726;10.390;2023-08-12T03:28:47;8.68;;;5.65;;
59607;SDS011;45426;44.726;10.390;2023-08-12T03:31:13;10.20;;;5.70;;
59607;SDS011;45426;44.726;10.390;2023-08-12T03:33:38;10.40;;;5.32;;
59607;SDS011;45426;44.726;10.390;2023-08-12T03:36:03;8.27;;;5.47;;
59607;SDS011;45426;44.726;10.390;2023-08-12T03:38:29;9.02;;;5.80;;
59607;SDS011;45426;44.726;10.390;2023-08-12T03:40:54;10.77;;;5.82;;
59607;SDS011;45426;44.726;10.390;2023-08-12T03:43:20;11.07;;;6.47;;
59607;SDS011;45426;44.726;10.390;2023-08-12T03:45:45;9.95;;;6.75;;
59607;SDS011;45426;44.726;10.390;2023-08-12T03:48:12;9.65;;;6.00;;
59607;SDS011;45426;44.726;10.390;2023-08-12T03:50:38;11.25;;;6.65;;
59607;SDS011;45426;44.726;10.390;2023-08-12T03:53:04;13.45;;;8.10;;
59607;SDS011;45426;44.726;10.390;2023-08-12T03:55:32;13.60;;;8.70;;
59607;SDS011;45426;44.726;10.390;2023-08-12T03:57:59;12.85;;;9.00;;
59607;SDS011;45426;44.726;10.390;2023-08-12T04:00:25;14.13;;;9.43;;
59607;SDS011;45426;44.726;10.390;2023-08-12T04:02:51;15.82;;;9.73;;
59607;SDS011;45426;44.726;10.390;2023-08-12T04:05:17;14.60;;;10.48;;
59607;SDS011;45426;44.726;10.390;2023-08-12T04:07:42;12.82;;;9.57;;
59607;SDS011;45426;44.726;10.390;2023-08-12T04:10:08;10.98;;;7.68;;
59607;SDS011;45426;44.726;10.390;2023-08-12T04:12:33;13.77;;;8.77;;
59607;SDS011;45426;44.726;10.390;2023-08-12T04:14:59;15.32;;;9.93;;
59607;SDS011;45426;44.726;10.390;2023-08-12T04:17:27;15.65;;;11.00;;
59607;SDS011;45426;44.726;10.390;2023-08-12T04:19:52;16.85;;;11.95;;
59607;SDS011;45426;44.726;10.390;2023-08-12T04:22:18;15.57;;;11.63;;
59607;SDS011;45426;44.726;10.390;2023-08-12T04:24:43;17.88;;;12.52;;
59607;SDS011;45426;44.726;10.390;2023-08-12T04:27:08;18.05;;;12.52;;
59607;SDS011;45426;44.726;10.390;2023-08-12T04:29:34;19.02;;;12.73;;
59607;SDS011;45426;44.726;10.390;2023-08-12T04:32:00;16.70;;;12.05;;
59607;SDS011;45426;44.726;10.390;2023-08-12T04:34:26;20.42;;;13.20;;
59607;SDS011;45426;44.726;10.390;2023-08-12T04:36:51;19.42;;;12.95;;
59607;SDS011;45426;44.726;10.390;2023-08-12T04:39:16;17.83;;;12.02;;
59607;SDS011;45426;44.726;10.390;2023-08-12T04:41:42;16.00;;;11.13;;
59607;SDS011;45426;44.726;10.390;2023-08-12T04:44:07;15.10;;;12.23;;
59607;SDS011;45426;44.726;10.390;2023-08-12T04:46:33;16.02;;;11.93;;
59607;SDS011;45426;44.726;10.390;2023-08-12T04:48:58;14.52;;;8.90;;
59607;SDS011;45426;44.726;10.390;2023-08-12T04:51:23;11.95;;;8.57;;
59607;SDS011;45426;44.726;10.390;2023-08-12T04:53:49;13.18;;;9.13;;
59607;SDS011;45426;44.726;10.390;2023-08-12T04:56:15;12.75;;;9.07;;
59607;SDS011;45426;44.726;10.390;2023-08-12T04:58:40;12.02;;;8.80;;
59607;SDS011;45426;44.726;10.390;2023-08-12T05:01:07;15.45;;;9.45;;
59607;SDS011;45426;44.726;10.390;2023-08-12T05:03:33;13.07;;;9.55;;
59607;SDS011;45426;44.726;10.390;2023-08-12T05:05:58;14.35;;;10.13;;
59607;SDS011;45426;44.726;10.390;2023-08-12T05:08:23;13.60;;;9.73;;
59607;SDS011;45426;44.726;10.390;2023-08-12T05:10:49;13.85;;;9.85;;
59607;SDS011;45426;44.726;10.390;2023-08-12T05:13:15;13.65;;;9.73;;
59607;SDS011;45426;44.726;10.390;2023-08-12T05:15:41;15.93;;;9.63;;
59607;SDS011;45426;44.726;10.390;2023-08-12T05:18:11;14.57;;;9.88;;
59607;SDS011;45426;44.726;10.390;2023-08-12T05:20:36;13.43;;;10.38;;
59607;SDS011;45426;44.726;10.390;2023-08-12T05:23:01;14.13;;;9.65;;
59607;SDS011;45426;44.726;10.390;2023-08-12T05:25:27;17.00;;;10.88;;
59607;SDS011;45426;44.726;10.390;2023-08-12T05:27:52;13.70;;;9.60;;
59607;SDS011;45426;44.726;10.390;2023-08-12T05:30:18;17.00;;;10.82;;
59607;SDS011;45426;44.726;10.390;2023-08-12T05:32:43;15.57;;;10.80;;
59607;SDS011;45426;44.726;10.390;2023-08-12T05:35:09;16.45;;;10.45;;
59607;SDS011;45426;44.726;10.390;2023-08-12T05:37:34;15.68;;;9.57;;
59607;SDS011;45426;44.726;10.390;2023-08-12T05:40:00;15.57;;;9.98;;
59607;SDS011;45426;44.726;10.390;2023-08-12T05:42:25;15.48;;;9.63;;
59607;SDS011;45426;44.726;10.390;2023-08-12T05:44:50;15.90;;;9.77;;
59607;SDS011;45426;44.726;10.390;2023-08-12T05:47:19;14.32;;;9.75;;
59607;SDS011;45426;44.726;10.390;2023-08-12T05:49:44;15.82;;;10.25;;
59607;SDS011;45426;44.726;10.390;2023-08-12T05:52:10;17.27;;;10.38;;
59607;SDS011;45426;44.726;10.390;2023-08-12T05:54:35;13.88;;;9.85;;
59607;SDS011;45426;44.726;10.390;2023-08-12T05:57:01;14.63;;;9.95;;
59607;SDS011;45426;44.726;10.390;2023-08-12T05:59:27;15.27;;;10.00;;
59607;SDS011;45426;44.726;10.390;2023-08-12T06:01:53;16.08;;;10.55;;
59607;SDS011;45426;44.726;10.390;2023-08-12T06:04:18;15.25;;;10.57;;
59607;SDS011;45426;44.726;10.390;2023-08-12T06:06:44;15.38;;;10.75;;
59607;SDS011;45426;44.726;10.390;2023-08-12T06:09:09;12.70;;;9.70;;
59607;SDS011;45426;44.726;10.390;2023-08-12T06:11:35;16.08;;;9.98;;
59607;SDS011;45426;44.726;10.390;2023-08-12T06:14:00;15.20;;;9.38;;
59607;SDS011;45426;44.726;10.390;2023-08-12T06:16:25;14.52;;;9.38;;
59607;SDS011;45426;44.726;10.390;2023-08-12T06:18:51;18.13;;;11.15;;
59607;SDS011;45426;44.726;10.390;2023-08-12T06:21:17;17.58;;;10.77;;
59607;SDS011;45426;44.726;10.390;2023-08-12T06:23:42;15.50;;;9.68;;
59607;SDS011;45426;44.726;10.390;2023-08-12T06:26:08;15.93;;;10.35;;
59607;SDS011;45426;44.726;10.390;2023-08-12T06:28:33;14.25;;;10.10;;
59607;SDS011;45426;44.726;10.390;2023-08-12T06:30:59;16.70;;;10.07;;
59607;SDS011;45426;44.726;10.390;2023-08-12T06:33:24;15.25;;;9.70;;
59607;SDS011;45426;44.726;10.390;2023-08-12T06:35:50;18.20;;;9.27;;
59607;SDS011;45426;44.726;10.390;2023-08-12T06:38:16;19.75;;;9.40;;
59607;SDS011;45426;44.726;10.390;2023-08-12T06:40:41;16.92;;;9.60;;
59607;SDS011;45426;44.726;10.390;2023-08-12T06:43:06;17.20;;;8.95;;
59607;SDS011;45426;44.726;10.390;2023-08-12T06:45:33;13.38;;;7.88;;
59607;SDS011;45426;44.726;10.390;2023-08-12T06:47:59;13.75;;;8.00;;
59607;SDS011;45426;44.726;10.390;2023-08-12T06:50:24;14.13;;;8.05;;
59607;SDS011;45426;44.726;10.390;2023-08-12T06:52:50;12.82;;;7.90;;
59607;SDS011;45426;44.726;10.390;2023-08-12T06:55:16;13.48;;;7.40;;
59607;SDS011;45426;44.726;10.390;2023-08-12T06:57:41;11.30;;;7.63;;
59607;SDS011;45426;44.726;10.390;2023-08-12T07:00:07;12.40;;;6.63;;
59607;SDS011;45426;44.726;10.390;2023-08-12T07:02:33;11.27;;;6.40;;
59607;SDS011;45426;44.726;10.390;2023-08-12T07:04:59;15.15;;;6.40;;
59607;SDS011;45426;44.726;10.390;2023-08-12T07:07:24;10.88;;;6.30;;
59607;SDS011;45426;44.726;10.390;2023-08-12T07:09:50;9.02;;;5.53;;
59607;SDS011;45426;44.726;10.390;2023-08-12T07:12:15;8.70;;;5.68;;
59607;SDS011;45426;44.726;10.390;2023-08-12T07:14:41;9.25;;;5.60;;
59607;SDS011;45426;44.726;10.390;2023-08-12T07:17:06;7.97;;;4.78;;
59607;SDS011;45426;44.726;10.390;2023-08-12T07:19:31;10.02;;;5.45;;
59607;SDS011;45426;44.726;10.390;2023-08-12T07:21:57;7.82;;;5.18;;
59607;SDS011;45426;44.726;10.390;2023-08-12T07:24:22;8.40;;;5.40;;
59607;SDS011;45426;44.726;10.390;2023-08-12T07:26:48;11.05;;;5.07;;
59607;SDS011;45426;44.726;10.390;2023-08-12T07:29:13;10.48;;;5.45;;
59607;SDS011;45426;44.726;10.390;2023-08-12T07:31:39;9.43;;;5.38;;
59607;SDS011;45426;44.726;10.390;2023-08-12T07:34:04;9.73;;;5.10;;
59607;SDS011;45426;44.726;10.390;2023-08-12T07:36:29;7.68;;;5.10;;
59607;SDS011;45426;44.726;10.390;2023-08-12T07:38:55;10.45;;;4.60;;
59607;SDS011;45426;44.726;10.390;2023-08-12T07:41:21;7.15;;;4.97;;
59607;SDS011;45426;44.726;10.390;2023-08-12T07:43:46;9.40;;;4.97;;
59607;SDS011;45426;44.726;10.390;2023-08-12T07:46:12;8.90;;;5.07;;
59607;SDS011;45426;44.726;10.390;2023-08-12T07:48:37;7.80;;;4.95;;
59607;SDS011;45426;44.726;10.390;2023-08-12T07:51:03;8.32;;;5.05;;
59607;SDS011;45426;44.726;10.390;2023-08-12T07:53:29;7.85;;;4.60;;
59607;SDS011;45426;44.726;10.390;2023-08-12T07:55:54;8.27;;;4.80;;
59607;SDS011;45426;44.726;10.390;2023-08-12T07:58:22;8.20;;;4.80;;
59607;SDS011;45426;44.726;10.390;2023-08-12T08:00:48;10.55;;;4.78;;
59607;SDS011;45426;44.726;10.390;2023-08-12T08:03:13;8.63;;;4.40;;
59607;SDS011;45426;44.726;10.390;2023-08-12T08:05:42;10.93;;;4.20;;
59607;SDS011;45426;44.726;10.390;2023-08-12T08:08:10;6.63;;;4.50;;
59607;SDS011;45426;44.726;10.390;2023-08-12T08:10:35;12.60;;;4.90;;
59607;SDS011;45426;44.726;10.390;2023-08-12T08:13:01;8.05;;;4.78;;
59607;SDS011;45426;44.726;10.390;2023-08-12T08:15:26;7.80;;;4.07;;
59607;SDS011;45426;44.726;10.390;2023-08-12T08:17:52;6.43;;;4.10;;
59607;SDS011;45426;44.726;10.390;2023-08-12T08:20:17;7.28;;;4.30;;
59607;SDS011;45426;44.726;10.390;2023-08-12T08:22:43;8.98;;;4.30;;
59607;SDS011;45426;44.726;10.390;2023-08-12T08:25:08;7.60;;;4.35;;
59607;SDS011;45426;44.726;10.390;2023-08-12T08:27:34;8.48;;;4.70;;
59607;SDS011;45426;44.726;10.390;2023-08-12T08:30:00;9.13;;;4.40;;
59607;SDS011;45426;44.726;10.390;2023-08-12T08:32:25;7.90;;;4.22;;
59607;SDS011;45426;44.726;10.390;2023-08-12T08:34:51;7.43;;;4.13;;
59607;SDS011;45426;44.726;10.390;2023-08-12T08:37:16;6.65;;;3.70;;
59607;SDS011;45426;44.726;10.390;2023-08-12T08:39:41;5.22;;;3.05;;
59607;SDS011;45426;44.726;10.390;2023-08-12T08:42:07;5.07;;;2.95;;
59607;SDS011;45426;44.726;10.390;2023-08-12T08:44:36;8.55;;;3.60;;
59607;SDS011;45426;44.726;10.390;2023-08-12T08:47:06;7.22;;;3.35;;
59607;SDS011;45426;44.726;10.390;2023-08-12T08:49:33;6.68;;;3.63;;
59607;SDS011;45426;44.726;10.390;2023-08-12T08:52:01;7.30;;;3.25;;
59607;SDS011;45426;44.726;10.390;2023-08-12T08:54:27;5.60;;;3.17;;
59607;SDS011;45426;44.726;10.390;2023-08-12T08:56:52;6.07;;;3.22;;
59607;SDS011;45426;44.726;10.390;2023-08-12T08:59:18;6.82;;;3.28;;
59607;SDS011;45426;44.726;10.390;2023-08-12T09:01:46;6.70;;;3.40;;
59607;SDS011;45426;44.726;10.390;2023-08-12T09:04:13;6.13;;;3.67;;
59607;SDS011;45426;44.726;10.390;2023-08-12T09:06:40;5.45;;;3.53;;
59607;SDS011;45426;44.726;10.390;2023-08-12T09:09:09;7.85;;;3.40;;
59607;SDS011;45426;44.726;10.390;2023-08-12T09:11:40;6.40;;;3.65;;
59607;SDS011;45426;44.726;10.390;2023-08-12T09:14:06;6.13;;;3.38;;
59607;SDS011;45426;44.726;10.390;2023-08-12T09:16:33;7.78;;;3.78;;
59607;SDS011;45426;44.726;10.390;2023-08-12T09:18:59;8.00;;;3.60;;
59607;SDS011;45426;44.726;10.390;2023-08-12T09:21:24;8.23;;;3.45;;
59607;SDS011;45426;44.726;10.390;2023-08-12T09:23:53;10.13;;;4.22;;
59607;SDS011;45426;44.726;10.390;2023-08-12T09:26:27;8.93;;;3.80;;
59607;SDS011;45426;44.726;10.390;2023-08-12T09:28:54;6.38;;;3.97;;
59607;SDS011;45426;44.726;10.390;2023-08-12T09:31:26;6.70;;;3.47;;
59607;SDS011;45426;44.726;10.390;2023-08-12T09:34:03;8.20;;;3.63;;
59607;SDS011;45426;44.726;10.390;2023-08-12T09:36:31;7.38;;;3.53;;
59607;SDS011;45426;44.726;10.390;2023-08-12T09:38:58;7.10;;;3.30;;
59607;SDS011;45426;44.726;10.390;2023-08-12T09:41:26;8.30;;;3.10;;
59607;SDS011;45426;44.726;10.390;2023-08-12T09:43:55;8.05;;;3.78;;
59607;SDS011;45426;44.726;10.390;2023-08-12T09:46:22;8.35;;;3.80;;
59607;SDS011;45426;44.726;10.390;2023-08-12T09:48:52;7.00;;;3.38;;
59607;SDS011;45426;44.726;10.390;2023-08-12T09:51:20;7.13;;;3.17;;
59607;SDS011;45426;44.726;10.390;2023-08-12T09:53:49;8.02;;;4.10;;
59607;SDS011;45426;44.726;10.390;2023-08-12T09:56:17;6.70;;;4.13;;
59607;SDS011;45426;44.726;10.390;2023-08-12T09:58:44;8.45;;;3.58;;
59607;SDS011;45426;44.726;10.390;2023-08-12T10:01:13;7.57;;;3.60;;
59607;SDS011;45426;44.726;10.390;2023-08-12T10:03:39;7.82;;;3.63;;
59607;SDS011;45426;44.726;10.390;2023-08-12T10:06:06;5.80;;;3.08;;
59607;SDS011;45426;44.726;10.390;2023-08-12T10:08:32;3.53;;;2.60;;
59607;SDS011;45426;44.726;10.390;2023-08-12T10:11:00;7.88;;;3.17;;
59607;SDS011;45426;44.726;10.390;2023-08-12T10:13:26;5.75;;;2.80;;
59607;SDS011;45426;44.726;10.390;2023-08-12T10:15:53;5.22;;;2.95;;
59607;SDS011;45426;44.726;10.390;2023-08-12T10:18:19;5.18;;;2.95;;
59607;SDS011;45426;44.726;10.390;2023-08-12T10:20:47;5.55;;;2.80;;
59607;SDS011;45426;44.726;10.390;2023-08-12T10:23:16;4.93;;;2.53;;
59607;SDS011;45426;44.726;10.390;2023-08-12T10:25:43;5.95;;;2.75;;
59607;SDS011;45426;44.726;10.390;2023-08-12T10:28:10;5.72;;;2.85;;
59607;SDS011;45426;44.726;10.390;2023-08-12T10:30:36;8.20;;;2.92;;
59607;SDS011;45426;44.726;10.390;2023-08-12T10:33:02;4.43;;;2.67;;
59607;SDS011;45426;44.726;10.390;2023-08-12T10:35:41;7.07;;;3.03;;
59607;SDS011;45426;44.726;10.390;2023-08-12T10:38:06;5.75;;;2.85;;
59607;SDS011;45426;44.726;10.390;2023-08-12T10:40:32;6.93;;;3.30;;
59607;SDS011;45426;44.726;10.390;2023-08-12T10:42:57;7.18;;;3.20;;
59607;SDS011;45426;44.726;10.390;2023-08-12T10:45:23;4.68;;;3.00;;
59607;SDS011;45426;44.726;10.390;2023-08-12T10:48:24;5.03;;;2.75;;
59607;SDS011;45426;44.726;10.390;2023-08-12T10:50:54;4.70;;;2.70;;
59607;SDS011;45426;44.726;10.390;2023-08-12T10:55:54;7.50;;;3.13;;
59607;SDS011;45426;44.726;10.390;2023-08-12T10:58:28;8.32;;;3.00;;
59607;SDS011;45426;44.726;10.390;2023-08-12T11:01:00;4.30;;;3.13;;
59607;SDS011;45426;44.726;10.390;2023-08-12T11:03:26;6.82;;;2.60;;
59607;SDS011;45426;44.726;10.390;2023-08-12T11:05:59;4.75;;;2.88;;
59607;SDS011;45426;44.726;10.390;2023-08-12T11:08:26;6.95;;;2.92;;
59607;SDS011;45426;44.726;10.390;2023-08-12T11:10:53;4.93;;;2.70;;
59607;SDS011;45426;44.726;10.390;2023-08-12T11:13:19;4.97;;;2.83;;
59607;SDS011;45426;44.726;10.390;2023-08-12T11:15:45;5.38;;;3.28;;
59607;SDS011;45426;44.726;10.390;2023-08-12T11:18:13;6.30;;;2.92;;
59607;SDS011;45426;44.726;10.390;2023-08-12T11:20:41;8.13;;;2.95;;
59607;SDS011;45426;44.726;10.390;2023-08-12T11:23:08;5.75;;;3.03;;
59607;SDS011;45426;44.726;10.390;2023-08-12T11:25:35;6.28;;;3.00;;
59607;SDS011;45426;44.726;10.390;2023-08-12T11:28:03;6.20;;;2.90;;
59607;SDS011;45426;44.726;10.390;2023-08-12T11:30:29;4.57;;;2.70;;
59607;SDS011;45426;44.726;10.390;2023-08-12T11:32:54;5.57;;;2.70;;
59607;SDS011;45426;44.726;10.390;2023-08-12T11:35:21;4.25;;;2.72;;
59607;SDS011;45426;44.726;10.390;2023-08-12T11:37:48;5.43;;;2.47;;
59607;SDS011;45426;44.726;10.390;2023-08-12T11:40:16;6.30;;;2.53;;
59607;SDS011;45426;44.726;10.390;2023-08-12T11:42:43;4.15;;;2.60;;
59607;SDS011;45426;44.726;10.390;2023-08-12T11:45:13;5.32;;;2.50;;
59607;SDS011;45426;44.726;10.390;2023-08-12T11:47:41;4.50;;;3.00;;
59607;SDS011;45426;44.726;10.390;2023-08-12T11:50:10;3.75;;;2.60;;
59607;SDS011;45426;44.726;10.390;2023-08-12T11:52:37;7.50;;;2.65;;
59607;SDS011;45426;44.726;10.390;2023-08-12T11:55:03;6.63;;;2.70;;
59607;SDS011;45426;44.726;10.390;2023-08-12T11:57:30;8.02;;;2.60;;
59607;SDS011;45426;44.726;10.390;2023-08-12T12:00:03;4.88;;;2.65;;
59607;SDS011;45426;44.726;10.390;2023-08-12T12:05:20;5.93;;;2.88;;
59607;SDS011;45426;44.726;10.390;2023-08-12T12:07:48;5.75;;;2.75;;
59607;SDS011;45426;44.726;10.390;2023-08-12T12:10:18;5.05;;;2.67;;
59607;SDS011;45426;44.726;10.390;2023-08-12T12:12:50;4.47;;;2.53;;
59607;SDS011;45426;44.726;10.390;2023-08-12T12:15:16;5.47;;;2.70;;
59607;SDS011;45426;44.726;10.390;2023-08-12T12:17:41;4.47;;;2.70;;
59607;SDS011;45426;44.726;10.390;2023-08-12T12:20:07;5.30;;;2.55;;
59607;SDS011;45426;44.726;10.390;2023-08-12T12:22:36;5.63;;;3.03;;
59607;SDS011;45426;44.726;10.390;2023-08-12T12:25:05;4.18;;;2.50;;
59607;SDS011;45426;44.726;10.390;2023-08-12T12:27:33;3.83;;;2.50;;
59607;SDS011;45426;44.726;10.390;2023-08-12T12:30:01;4.70;;;2.83;;
59607;SDS011;45426;44.726;10.390;2023-08-12T12:32:27;4.05;;;2.50;;
59607;SDS011;45426;44.726;10.390;2023-08-12T12:34:52;6.05;;;2.80;;
59607;SDS011;45426;44.726;10.390;2023-08-12T12:37:20;4.70;;;2.80;;
59607;SDS011;45426;44.726;10.390;2023-08-12T12:39:45;5.78;;;2.95;;
59607;SDS011;45426;44.726;10.390;2023-08-12T12:42:11;4.63;;;2.50;;
59607;SDS011;45426;44.726;10.390;2023-08-12T12:44:37;8.38;;;2.95;;
59607;SDS011;45426;44.726;10.390;2023-08-12T12:47:02;3.90;;;2.70;;
59607;SDS011;45426;44.726;10.390;2023-08-12T12:49:28;4.68;;;2.80;;
59607;SDS011;45426;44.726;10.390;2023-08-12T12:51:54;3.10;;;2.55;;
59607;SDS011;45426;44.726;10.390;2023-08-12T12:54:19;6.32;;;2.83;;
59607;SDS011;45426;44.726;10.390;2023-08-12T12:56:45;6.03;;;2.80;;
59607;SDS011;45426;44.726;10.390;2023-08-12T12:59:11;4.97;;;2.72;;
59607;SDS011;45426;44.726;10.390;2023-08-12T13:01:36;3.15;;;2.70;;
59607;SDS011;45426;44.726;10.390;2023-08-12T13:04:02;4.63;;;2.80;;
59607;SDS011;45426;44.726;10.390;2023-08-12T13:06:27;6.38;;;2.75;;
59607;SDS011;45426;44.726;10.390;2023-08-12T13:08:53;5.82;;;2.80;;
59607;SDS011;45426;44.726;10.390;2023-08-12T13:11:19;4.40;;;2.63;;
59607;SDS011;45426;44.726;10.390;2023-08-12T13:13:44;10.40;;;3.20;;
59607;SDS011;45426;44.726;10.390;2023-08-12T13:16:09;4.78;;;2.90;;
59607;SDS011;45426;44.726;10.390;2023-08-12T13:18:35;3.85;;;2.70;;
59607;SDS011;45426;44.726;10.390;2023-08-12T13:21:00;6.53;;;2.60;;
59607;SDS011;45426;44.726;10.390;2023-08-12T13:23:26;4.97;;;3.00;;
59607;SDS011;45426;44.726;10.390;2023-08-12T13:25:51;4.07;;;2.67;;
59607;SDS011;45426;44.726;10.390;2023-08-12T13:28:17;5.93;;;2.70;;
59607;SDS011;45426;44.726;10.390;2023-08-12T13:30:44;6.10;;;2.90;;
59607;SDS011;45426;44.726;10.390;2023-08-12T13:33:10;5.03;;;2.70;;
59607;SDS011;45426;44.726;10.390;2023-08-12T13:35:35;6.82;;;2.95;;
59607;SDS011;45426;44.726;10.390;2023-08-12T13:38:01;5.18;;;3.00;;
59607;SDS011;45426;44.726;10.390;2023-08-12T13:40:26;6.25;;;2.60;;
59607;SDS011;45426;44.726;10.390;2023-08-12T13:42:52;5.13;;;2.83;;
59607;SDS011;45426;44.726;10.390;2023-08-12T13:45:17;4.53;;;3.10;;
59607;SDS011;45426;44.726;10.390;2023-08-12T13:47:43;4.32;;;2.70;;
59607;SDS011;45426;44.726;10.390;2023-08-12T13:50:08;6.15;;;3.20;;
59607;SDS011;45426;44.726;10.390;2023-08-12T13:52:34;6.50;;;2.83;;
59607;SDS011;45426;44.726;10.390;2023-08-12T13:54:59;11.80;;;3.78;;
59607;SDS011;45426;44.726;10.390;2023-08-12T13:57:26;5.20;;;3.00;;
59607;SDS011;45426;44.726;10.390;2023-08-12T13:59:51;11.60;;;3.25;;
59607;SDS011;45426;44.726;10.390;2023-08-12T14:02:16;11.00;;;4.07;;
59607;SDS011;45426;44.726;10.390;2023-08-12T14:04:42;25.42;;;9.43;;
59607;SDS011;45426;44.726;10.390;2023-08-12T14:07:07;10.68;;;3.92;;
59607;SDS011;45426;44.726;10.390;2023-08-12T14:09:33;7.88;;;3.10;;
59607;SDS011;45426;44.726;10.390;2023-08-12T14:11:59;6.70;;;3.33;;
59607;SDS011;45426;44.726;10.390;2023-08-12T14:14:25;5.15;;;2.88;;
59607;SDS011;45426;44.726;10.390;2023-08-12T14:16:54;6.55;;;3.25;;
59607;SDS011;45426;44.726;10.390;2023-08-12T14:19:20;6.68;;;2.78;;
59607;SDS011;45426;44.726;10.390;2023-08-12T14:21:45;5.55;;;2.70;;
59607;SDS011;45426;44.726;10.390;2023-08-12T14:24:11;6.85;;;3.03;;
59607;SDS011;45426;44.726;10.390;2023-08-12T14:26:38;5.80;;;2.60;;
59607;SDS011;45426;44.726;10.390;2023-08-12T14:29:03;6.05;;;3.00;;
59607;SDS011;45426;44.726;10.390;2023-08-12T14:31:29;5.07;;;2.88;;